sensor_id;sensor_type;location;lat;lon;timestamp;temperature;humidity
5136;DHT22;2586;48.710;9.202;2023-02-20T00:00:21;7.20;99.90
5136;DHT22;2586;48.710;9.202;2023-02-20T00:02:47;7.30;99.90
5136;DHT22;2586;48.710;9.202;2023-02-20T00:05:14;7.30;99.90
5136;DHT22;2586;48.710;9.202;2023-02-20T00:07:39;7.30;99.90
5136;DHT22;2586;48.710;9.202;2023-02-20T00:10:06;7.40;99.90
5136;DHT22;2586;48.710;9.202;2023-02-20T00:12:31;7.40;99.90
5136;DHT22;2586;48.710;9.202;2023-02-20T00:14:57;7.40;99.90
5136;DHT22;2586;48.710;9.202;2023-02-20T00:17:23;7.40;99.90
5136;DHT22;2586;48.710;9.202;2023-02-20T00:19:48;7.40;99.90
5136;DHT22;2586;48.710;9.202;2023-02-20T00:22:14;7.40;99.90
5136;DHT22;2586;48.710;9.202;2023-02-20T00:24:40;7.40;99.90
5136;DHT22;2586;48.710;9.202;2023-02-20T00:27:06;7.40;99.90
5136;DHT22;2586;48.710;9.202;2023-02-20T00:29:32;7.40;99.90
5136;DHT22;2586;48.710;9.202;2023-02-20T00:31:58;7.40;99.90
5136;DHT22;2586;48.710;9.202;2023-02-20T00:34:26;7.50;99.90
5136;DHT22;2586;48.710;9.202;2023-02-20T00:36:52;7.50;99.90
5136;DHT22;2586;48.710;9.202;2023-02-20T00:39:18;7.50;43.10
5136;DHT22;2586;48.710;9.202;2023-02-20T00:41:44;7.50;1.00
5136;DHT22;2586;48.710;9.202;2023-02-20T00:44:09;7.50;1.00
5136;DHT22;2586;48.710;9.202;2023-02-20T00:46:35;7.50;1.00
5136;DHT22;2586;48.710;9.202;2023-02-20T00:49:01;7.50;1.00
5136;DHT22;2586;48.710;9.202;2023-02-20T00:51:27;7.50;1.00
5136;DHT22;2586;48.710;9.202;2023-02-20T00:53:52;7.50;1.00
5136;DHT22;2586;48.710;9.202;2023-02-20T00:56:18;7.50;1.00
5136;DHT22;2586;48.710;9.202;2023-02-20T00:58:44;7.50;1.00
5136;DHT22;2586;48.710;9.202;2023-02-20T01:01:09;7.50;1.00
5136;DHT22;2586;48.710;9.202;2023-02-20T01:03:35;7.50;1.00
5136;DHT22;2586;48.710;9.202;2023-02-20T01:06:01;7.50;1.00
5136;DHT22;2586;48.710;9.202;2023-02-20T01:08:26;7.50;1.00
5136;DHT22;2586;48.710;9.202;2023-02-20T01:10:52;7.50;1.00
5136;DHT22;2586;48.710;9.202;2023-02-20T01:13:18;7.50;1.00
5136;DHT22;2586;48.710;9.202;2023-02-20T01:15:43;7.50;1.00
5136;DHT22;2586;48.710;9.202;2023-02-20T01:18:09;7.50;1.00
5136;DHT22;2586;48.710;9.202;2023-02-20T01:20:35;7.50;1.00
5136;DHT22;2586;48.710;9.202;2023-02-20T01:23:00;7.50;1.00
5136;DHT22;2586;48.710;9.202;2023-02-20T01:25:26;7.50;1.00
5136;DHT22;2586;48.710;9.202;2023-02-20T01:27:52;7.50;1.00
5136;DHT22;2586;48.710;9.202;2023-02-20T01:30:18;7.50;1.00
5136;DHT22;2586;48.710;9.202;2023-02-20T01:32:43;7.50;1.00
5136;DHT22;2586;48.710;9.202;2023-02-20T01:35:09;7.40;1.00
5136;DHT22;2586;48.710;9.202;2023-02-20T01:37:34;7.40;1.00
5136;DHT22;2586;48.710;9.202;2023-02-20T01:40:01;7.40;1.00
5136;DHT22;2586;48.710;9.202;2023-02-20T01:42:29;7.50;1.00
5136;DHT22;2586;48.710;9.202;2023-02-20T01:47:44;7.50;99.90
5136;DHT22;2586;48.710;9.202;2023-02-20T01:50:10;7.40;99.90
5136;DHT22;2586;48.710;9.202;2023-02-20T01:52:38;7.40;99.90
5136;DHT22;2586;48.710;9.202;2023-02-20T01:55:09;7.40;99.90
5136;DHT22;2586;48.710;9.202;2023-02-20T01:57:38;7.50;99.90
5136;DHT22;2586;48.710;9.202;2023-02-20T02:00:14;7.50;99.90
5136;DHT22;2586;48.710;9.202;2023-02-20T02:02:43;7.50;99.90
5136;DHT22;2586;48.710;9.202;2023-02-20T02:05:11;7.50;99.90
5136;DHT22;2586;48.710;9.202;2023-02-20T02:07:37;7.50;99.90
5136;DHT22;2586;48.710;9.202;2023-02-20T02:10:07;7.50;99.90
5136;DHT22;2586;48.710;9.202;2023-02-20T02:12:34;7.50;99.90
5136;DHT22;2586;48.710;9.202;2023-02-20T02:15:00;7.50;99.90
5136;DHT22;2586;48.710;9.202;2023-02-20T02:18:14;7.50;99.90
5136;DHT22;2586;48.710;9.202;2023-02-20T02:43:49;7.30;1.00
5136;DHT22;2586;48.710;9.202;2023-02-20T02:46:21;7.30;1.00
5136;DHT22;2586;48.710;9.202;2023-02-20T02:49:19;7.30;1.00
5136;DHT22;2586;48.710;9.202;2023-02-20T02:51:50;7.30;1.00
5136;DHT22;2586;48.710;9.202;2023-02-20T02:54:19;7.20;1.00
5136;DHT22;2586;48.710;9.202;2023-02-20T02:56:47;7.20;1.00
5136;DHT22;2586;48.710;9.202;2023-02-20T02:59:25;7.10;12.50
5136;DHT22;2586;48.710;9.202;2023-02-20T03:01:59;7.10;93.80
5136;DHT22;2586;48.710;9.202;2023-02-20T03:04:27;7.10;99.90
5136;DHT22;2586;48.710;9.202;2023-02-20T03:06:59;7.00;99.90
5136;DHT22;2586;48.710;9.202;2023-02-20T03:09:30;7.10;99.90
5136;DHT22;2586;48.710;9.202;2023-02-20T03:11:57;7.00;99.90
5136;DHT22;2586;48.710;9.202;2023-02-20T03:14:34;7.00;99.90
5136;DHT22;2586;48.710;9.202;2023-02-20T03:17:31;7.00;99.90
5136;DHT22;2586;48.710;9.202;2023-02-20T03:20:04;6.90;99.90
5136;DHT22;2586;48.710;9.202;2023-02-20T03:23:01;6.90;99.90
5136;DHT22;2586;48.710;9.202;2023-02-20T03:25:49;6.90;99.90
5136;DHT22;2586;48.710;9.202;2023-02-20T03:28:22;6.90;1.00
5136;DHT22;2586;48.710;9.202;2023-02-20T03:33:44;6.90;99.90
5136;DHT22;2586;48.710;9.202;2023-02-20T03:36:48;6.90;99.90
5136;DHT22;2586;48.710;9.202;2023-02-20T03:39:37;6.80;99.90
5136;DHT22;2586;48.710;9.202;2023-02-20T03:42:23;6.80;99.90
5136;DHT22;2586;48.710;9.202;2023-02-20T03:45:10;6.80;1.00
5136;DHT22;2586;48.710;9.202;2023-02-20T03:47:38;6.80;1.00
5136;DHT22;2586;48.710;9.202;2023-02-20T03:50:07;6.80;1.00
5136;DHT22;2586;48.710;9.202;2023-02-20T03:52:54;6.70;1.00
5136;DHT22;2586;48.710;9.202;2023-02-20T03:55:20;6.70;1.00
5136;DHT22;2586;48.710;9.202;2023-02-20T03:57:49;6.70;1.00
5136;DHT22;2586;48.710;9.202;2023-02-20T04:00:23;6.70;1.00
5136;DHT22;2586;48.710;9.202;2023-02-20T04:02:52;6.70;1.00
5136;DHT22;2586;48.710;9.202;2023-02-20T04:05:22;6.70;1.00
5136;DHT22;2586;48.710;9.202;2023-02-20T04:10:23;6.60;1.00
5136;DHT22;2586;48.710;9.202;2023-02-20T04:12:51;6.50;1.00
5136;DHT22;2586;48.710;9.202;2023-02-20T04:15:18;6.40;1.00
5136;DHT22;2586;48.710;9.202;2023-02-20T04:17:59;6.40;1.00
5136;DHT22;2586;48.710;9.202;2023-02-20T04:20:26;6.30;1.00
5136;DHT22;2586;48.710;9.202;2023-02-20T04:22:55;6.30;1.00
5136;DHT22;2586;48.710;9.202;2023-02-20T04:25:48;6.20;1.00
5136;DHT22;2586;48.710;9.202;2023-02-20T04:28:16;6.10;99.90
5136;DHT22;2586;48.710;9.202;2023-02-20T04:30:42;6.10;99.90
5136;DHT22;2586;48.710;9.202;2023-02-20T04:33:11;6.10;99.90
5136;DHT22;2586;48.710;9.202;2023-02-20T04:35:38;6.00;99.90
5136;DHT22;2586;48.710;9.202;2023-02-20T04:38:04;6.00;99.90
5136;DHT22;2586;48.710;9.202;2023-02-20T04:40:30;6.00;99.90
5136;DHT22;2586;48.710;9.202;2023-02-20T04:42:56;5.90;99.90
5136;DHT22;2586;48.710;9.202;2023-02-20T04:45:21;5.90;1.00
5136;DHT22;2586;48.710;9.202;2023-02-20T04:47:47;5.80;1.00
5136;DHT22;2586;48.710;9.202;2023-02-20T04:50:19;5.80;1.00
5136;DHT22;2586;48.710;9.202;2023-02-20T04:52:45;5.80;1.00
5136;DHT22;2586;48.710;9.202;2023-02-20T04:55:11;5.80;99.90
5136;DHT22;2586;48.710;9.202;2023-02-20T04:57:36;5.80;1.00
5136;DHT22;2586;48.710;9.202;2023-02-20T05:00:03;5.70;99.90
5136;DHT22;2586;48.710;9.202;2023-02-20T05:02:29;5.70;1.00
5136;DHT22;2586;48.710;9.202;2023-02-20T05:04:55;5.70;99.90
5136;DHT22;2586;48.710;9.202;2023-02-20T05:07:20;5.70;99.90
5136;DHT22;2586;48.710;9.202;2023-02-20T05:09:46;5.70;99.90
5136;DHT22;2586;48.710;9.202;2023-02-20T05:12:11;5.70;99.90
5136;DHT22;2586;48.710;9.202;2023-02-20T05:14:37;5.70;99.90
5136;DHT22;2586;48.710;9.202;2023-02-20T05:17:02;5.60;99.90
5136;DHT22;2586;48.710;9.202;2023-02-20T05:19:28;5.60;99.90
5136;DHT22;2586;48.710;9.202;2023-02-20T05:21:53;5.60;1.00
5136;DHT22;2586;48.710;9.202;2023-02-20T05:24:37;5.50;1.00
5136;DHT22;2586;48.710;9.202;2023-02-20T05:27:03;5.50;1.00
5136;DHT22;2586;48.710;9.202;2023-02-20T05:29:28;5.30;1.00
5136;DHT22;2586;48.710;9.202;2023-02-20T05:31:54;5.40;17.80
5136;DHT22;2586;48.710;9.202;2023-02-20T05:34:20;5.30;1.00
5136;DHT22;2586;48.710;9.202;2023-02-20T05:36:47;5.30;1.00
5136;DHT22;2586;48.710;9.202;2023-02-20T05:39:12;5.20;99.90
5136;DHT22;2586;48.710;9.202;2023-02-20T05:41:38;5.20;99.90
5136;DHT22;2586;48.710;9.202;2023-02-20T05:44:04;5.20;99.90
5136;DHT22;2586;48.710;9.202;2023-02-20T05:46:29;5.20;1.00
5136;DHT22;2586;48.710;9.202;2023-02-20T05:48:55;5.20;99.90
5136;DHT22;2586;48.710;9.202;2023-02-20T05:51:24;5.20;99.90
5136;DHT22;2586;48.710;9.202;2023-02-20T05:53:50;5.20;99.90
5136;DHT22;2586;48.710;9.202;2023-02-20T05:56:16;5.10;1.00
5136;DHT22;2586;48.710;9.202;2023-02-20T05:58:43;5.10;1.00
5136;DHT22;2586;48.710;9.202;2023-02-20T06:01:19;5.10;1.00
5136;DHT22;2586;48.710;9.202;2023-02-20T06:03:44;5.10;1.00
5136;DHT22;2586;48.710;9.202;2023-02-20T06:06:10;5.10;1.00
5136;DHT22;2586;48.710;9.202;2023-02-20T06:08:36;5.10;1.00
5136;DHT22;2586;48.710;9.202;2023-02-20T06:11:01;5.10;1.00
5136;DHT22;2586;48.710;9.202;2023-02-20T06:13:27;5.10;1.00
5136;DHT22;2586;48.710;9.202;2023-02-20T06:15:52;5.10;1.00
5136;DHT22;2586;48.710;9.202;2023-02-20T06:18:18;5.10;1.00
5136;DHT22;2586;48.710;9.202;2023-02-20T06:20:44;5.10;1.00
5136;DHT22;2586;48.710;9.202;2023-02-20T06:23:09;5.20;1.00
5136;DHT22;2586;48.710;9.202;2023-02-20T06:25:35;5.20;99.90
5136;DHT22;2586;48.710;9.202;2023-02-20T06:28:00;5.20;99.90
5136;DHT22;2586;48.710;9.202;2023-02-20T06:30:26;5.20;28.20
5136;DHT22;2586;48.710;9.202;2023-02-20T06:32:51;5.20;1.00
5136;DHT22;2586;48.710;9.202;2023-02-20T06:35:17;5.20;97.70
5136;DHT22;2586;48.710;9.202;2023-02-20T06:37:42;5.20;99.90
5136;DHT22;2586;48.710;9.202;2023-02-20T06:40:08;5.20;1.00
5136;DHT22;2586;48.710;9.202;2023-02-20T06:42:34;5.20;1.00
5136;DHT22;2586;48.710;9.202;2023-02-20T06:45:00;5.20;1.00
5136;DHT22;2586;48.710;9.202;2023-02-20T06:47:25;5.20;1.00
5136;DHT22;2586;48.710;9.202;2023-02-20T06:49:51;5.20;1.00
5136;DHT22;2586;48.710;9.202;2023-02-20T06:52:16;5.30;1.00
5136;DHT22;2586;48.710;9.202;2023-02-20T06:54:43;5.20;1.00
5136;DHT22;2586;48.710;9.202;2023-02-20T06:57:09;5.30;1.00
5136;DHT22;2586;48.710;9.202;2023-02-20T06:59:34;5.40;99.90
5136;DHT22;2586;48.710;9.202;2023-02-20T07:02:09;5.40;99.90
5136;DHT22;2586;48.710;9.202;2023-02-20T07:04:35;5.50;1.00
5136;DHT22;2586;48.710;9.202;2023-02-20T07:07:00;5.60;1.00
5136;DHT22;2586;48.710;9.202;2023-02-20T07:09:27;5.70;99.90
5136;DHT22;2586;48.710;9.202;2023-02-20T07:11:53;5.80;99.90
5136;DHT22;2586;48.710;9.202;2023-02-20T07:14:19;5.90;75.20
5136;DHT22;2586;48.710;9.202;2023-02-20T07:16:45;6.00;1.00
5136;DHT22;2586;48.710;9.202;2023-02-20T07:19:11;6.00;1.00
5136;DHT22;2586;48.710;9.202;2023-02-20T07:21:36;6.10;1.00
5136;DHT22;2586;48.710;9.202;2023-02-20T07:24:02;6.20;1.00
5136;DHT22;2586;48.710;9.202;2023-02-20T07:26:29;6.40;99.90
5136;DHT22;2586;48.710;9.202;2023-02-20T07:28:55;6.60;99.90
5136;DHT22;2586;48.710;9.202;2023-02-20T07:31:28;6.60;62.10
5136;DHT22;2586;48.710;9.202;2023-02-20T07:33:54;7.10;99.90
5136;DHT22;2586;48.710;9.202;2023-02-20T07:36:20;7.30;99.90
5136;DHT22;2586;48.710;9.202;2023-02-20T07:38:57;7.60;99.90
5136;DHT22;2586;48.710;9.202;2023-02-20T07:41:27;7.70;1.00
5136;DHT22;2586;48.710;9.202;2023-02-20T07:43:56;7.60;99.90
5136;DHT22;2586;48.710;9.202;2023-02-20T07:46:22;7.60;99.90
5136;DHT22;2586;48.710;9.202;2023-02-20T07:48:48;7.80;99.90
5136;DHT22;2586;48.710;9.202;2023-02-20T07:51:14;7.80;99.90
5136;DHT22;2586;48.710;9.202;2023-02-20T07:53:40;7.90;41.20
5136;DHT22;2586;48.710;9.202;2023-02-20T07:56:05;8.10;1.00
5136;DHT22;2586;48.710;9.202;2023-02-20T07:58:31;8.20;1.00
5136;DHT22;2586;48.710;9.202;2023-02-20T08:00:56;8.30;1.00
5136;DHT22;2586;48.710;9.202;2023-02-20T08:03:22;8.60;1.00
5136;DHT22;2586;48.710;9.202;2023-02-20T08:05:48;8.70;1.00
5136;DHT22;2586;48.710;9.202;2023-02-20T08:08:13;8.90;1.00
5136;DHT22;2586;48.710;9.202;2023-02-20T08:10:39;8.90;99.90
5136;DHT22;2586;48.710;9.202;2023-02-20T08:13:04;9.00;99.90
5136;DHT22;2586;48.710;9.202;2023-02-20T08:15:30;8.80;99.90
5136;DHT22;2586;48.710;9.202;2023-02-20T08:17:55;9.00;1.00
5136;DHT22;2586;48.710;9.202;2023-02-20T08:20:21;9.20;99.90
5136;DHT22;2586;48.710;9.202;2023-02-20T08:22:48;9.30;99.90
5136;DHT22;2586;48.710;9.202;2023-02-20T08:25:15;9.20;99.90
5136;DHT22;2586;48.710;9.202;2023-02-20T08:27:42;9.30;99.90
5136;DHT22;2586;48.710;9.202;2023-02-20T08:30:23;9.20;99.90
5136;DHT22;2586;48.710;9.202;2023-02-20T08:32:54;9.40;99.90
5136;DHT22;2586;48.710;9.202;2023-02-20T08:35:21;9.40;99.90
5136;DHT22;2586;48.710;9.202;2023-02-20T08:37:49;9.60;99.90
5136;DHT22;2586;48.710;9.202;2023-02-20T08:40:14;9.70;99.90
5136;DHT22;2586;48.710;9.202;2023-02-20T08:42:40;10.00;99.90
5136;DHT22;2586;48.710;9.202;2023-02-20T08:45:07;10.00;99.90
5136;DHT22;2586;48.710;9.202;2023-02-20T08:47:33;10.00;99.90
5136;DHT22;2586;48.710;9.202;2023-02-20T08:49:59;10.10;99.90
5136;DHT22;2586;48.710;9.202;2023-02-20T08:52:24;10.20;99.90
5136;DHT22;2586;48.710;9.202;2023-02-20T08:54:50;10.40;99.90
5136;DHT22;2586;48.710;9.202;2023-02-20T08:57:17;10.70;99.90
5136;DHT22;2586;48.710;9.202;2023-02-20T08:59:43;10.70;99.90
5136;DHT22;2586;48.710;9.202;2023-02-20T09:02:24;10.80;99.90
5136;DHT22;2586;48.710;9.202;2023-02-20T09:04:53;11.20;99.90
5136;DHT22;2586;48.710;9.202;2023-02-20T09:07:19;11.50;99.90
5136;DHT22;2586;48.710;9.202;2023-02-20T09:09:44;11.30;90.40
5136;DHT22;2586;48.710;9.202;2023-02-20T09:12:10;11.10;84.30
5136;DHT22;2586;48.710;9.202;2023-02-20T09:14:36;11.20;90.00
5136;DHT22;2586;48.710;9.202;2023-02-20T09:17:02;11.30;77.50
5136;DHT22;2586;48.710;9.202;2023-02-20T09:19:29;11.60;59.30
5136;DHT22;2586;48.710;9.202;2023-02-20T09:21:55;11.70;52.00
5136;DHT22;2586;48.710;9.202;2023-02-20T09:24:20;11.80;52.40
5136;DHT22;2586;48.710;9.202;2023-02-20T09:26:46;11.90;43.70
5136;DHT22;2586;48.710;9.202;2023-02-20T09:29:11;12.00;43.90
5136;DHT22;2586;48.710;9.202;2023-02-20T09:31:37;12.00;34.30
5136;DHT22;2586;48.710;9.202;2023-02-20T09:34:03;11.90;29.80
5136;DHT22;2586;48.710;9.202;2023-02-20T09:36:29;12.30;24.60
5136;DHT22;2586;48.710;9.202;2023-02-20T09:38:54;12.70;22.30
5136;DHT22;2586;48.710;9.202;2023-02-20T09:44:16;12.90;4.00
5136;DHT22;2586;48.710;9.202;2023-02-20T09:46:47;12.90;4.70
5136;DHT22;2586;48.710;9.202;2023-02-20T09:49:18;13.10;1.00
5136;DHT22;2586;48.710;9.202;2023-02-20T09:51:52;13.30;2.00
5136;DHT22;2586;48.710;9.202;2023-02-20T09:54:26;13.70;1.00
5136;DHT22;2586;48.710;9.202;2023-02-20T09:56:56;14.10;1.00
5136;DHT22;2586;48.710;9.202;2023-02-20T09:59:41;13.80;1.00
5136;DHT22;2586;48.710;9.202;2023-02-20T10:04:47;14.70;1.00
5136;DHT22;2586;48.710;9.202;2023-02-20T10:07:24;14.60;1.00
5136;DHT22;2586;48.710;9.202;2023-02-20T10:09:50;13.90;1.00
5136;DHT22;2586;48.710;9.202;2023-02-20T10:26:14;12.10;1.00
5136;DHT22;2586;48.710;9.202;2023-02-20T10:28:42;12.20;1.00
5136;DHT22;2586;48.710;9.202;2023-02-20T10:32:09;12.90;1.00
5136;DHT22;2586;48.710;9.202;2023-02-20T10:34:22;13.40;1.00
5136;DHT22;2586;48.710;9.202;2023-02-20T10:37:10;13.30;1.00
5136;DHT22;2586;48.710;9.202;2023-02-20T10:39:42;13.40;1.00
5136;DHT22;2586;48.710;9.202;2023-02-20T10:42:29;13.20;1.00
5136;DHT22;2586;48.710;9.202;2023-02-20T10:45:13;13.70;1.00
5136;DHT22;2586;48.710;9.202;2023-02-20T10:50:30;14.80;1.00
5136;DHT22;2586;48.710;9.202;2023-02-20T10:53:24;15.00;1.00
5136;DHT22;2586;48.710;9.202;2023-02-20T10:56:18;14.90;1.00
5136;DHT22;2586;48.710;9.202;2023-02-20T11:01:38;15.10;1.00
5136;DHT22;2586;48.710;9.202;2023-02-20T11:04:24;15.10;1.00
5136;DHT22;2586;48.710;9.202;2023-02-20T11:07:00;15.10;1.00
5136;DHT22;2586;48.710;9.202;2023-02-20T11:09:27;15.20;1.00
5136;DHT22;2586;48.710;9.202;2023-02-20T11:11:53;14.80;1.00
5136;DHT22;2586;48.710;9.202;2023-02-20T11:17:10;15.50;1.00
5136;DHT22;2586;48.710;9.202;2023-02-20T11:22:08;15.80;1.00
5136;DHT22;2586;48.710;9.202;2023-02-20T11:24:39;16.40;1.00
5136;DHT22;2586;48.710;9.202;2023-02-20T11:27:20;16.50;1.00
5136;DHT22;2586;48.710;9.202;2023-02-20T11:29:57;17.00;1.00
5136;DHT22;2586;48.710;9.202;2023-02-20T11:32:28;17.00;1.00
5136;DHT22;2586;48.710;9.202;2023-02-20T11:37:38;16.80;1.00
5136;DHT22;2586;48.710;9.202;2023-02-20T11:40:14;17.00;1.00
5136;DHT22;2586;48.710;9.202;2023-02-20T11:42:40;17.40;1.00
5136;DHT22;2586;48.710;9.202;2023-02-20T11:45:16;17.20;1.00
5136;DHT22;2586;48.710;9.202;2023-02-20T11:47:42;17.30;1.00
5136;DHT22;2586;48.710;9.202;2023-02-20T11:50:18;17.20;1.00
5136;DHT22;2586;48.710;9.202;2023-02-20T11:53:01;17.00;1.00
5136;DHT22;2586;48.710;9.202;2023-02-20T11:55:29;17.30;1.00
5136;DHT22;2586;48.710;9.202;2023-02-20T11:57:55;16.90;1.00
5136;DHT22;2586;48.710;9.202;2023-02-20T12:00:28;17.10;1.00
5136;DHT22;2586;48.710;9.202;2023-02-20T12:05:38;18.00;1.00
5136;DHT22;2586;48.710;9.202;2023-02-20T12:11:07;18.30;1.00
5136;DHT22;2586;48.710;9.202;2023-02-20T12:13:42;19.00;1.00
5136;DHT22;2586;48.710;9.202;2023-02-20T12:18:54;18.90;1.00
5136;DHT22;2586;48.710;9.202;2023-02-20T12:25:00;19.90;1.00
5136;DHT22;2586;48.710;9.202;2023-02-20T12:26:58;20.40;1.00
5136;DHT22;2586;48.710;9.202;2023-02-20T12:29:34;20.30;1.00
5136;DHT22;2586;48.710;9.202;2023-02-20T12:32:20;20.90;1.00
5136;DHT22;2586;48.710;9.202;2023-02-20T12:35:02;21.60;1.00
5136;DHT22;2586;48.710;9.202;2023-02-20T12:45:45;20.70;1.00
5136;DHT22;2586;48.710;9.202;2023-02-20T12:53:55;20.70;1.00
5136;DHT22;2586;48.710;9.202;2023-02-20T12:56:42;20.90;1.00
5136;DHT22;2586;48.710;9.202;2023-02-20T13:01:43;20.80;1.00
5136;DHT22;2586;48.710;9.202;2023-02-20T13:04:51;20.80;1.00
5136;DHT22;2586;48.710;9.202;2023-02-20T13:07:25;20.80;1.00
5136;DHT22;2586;48.710;9.202;2023-02-20T13:10:22;20.80;1.00
5136;DHT22;2586;48.710;9.202;2023-02-20T13:12:49;21.20;1.00
5136;DHT22;2586;48.710;9.202;2023-02-20T13:20:48;21.10;1.00
5136;DHT22;2586;48.710;9.202;2023-02-20T13:25:50;21.20;1.00
5136;DHT22;2586;48.710;9.202;2023-02-20T13:28:34;21.70;1.00
5136;DHT22;2586;48.710;9.202;2023-02-20T13:31:51;21.80;1.00
5136;DHT22;2586;48.710;9.202;2023-02-20T13:47:00;22.20;1.00
5136;DHT22;2586;48.710;9.202;2023-02-20T13:55:03;22.60;1.00
5136;DHT22;2586;48.710;9.202;2023-02-20T13:57:33;22.70;1.00
5136;DHT22;2586;48.710;9.202;2023-02-20T14:00:22;23.30;1.00
5136;DHT22;2586;48.710;9.202;2023-02-20T14:02:48;22.90;1.00
5136;DHT22;2586;48.710;9.202;2023-02-20T14:05:23;23.10;1.00
5136;DHT22;2586;48.710;9.202;2023-02-20T14:07:49;24.10;1.00
5136;DHT22;2586;48.710;9.202;2023-02-20T14:10:17;24.70;1.00
5136;DHT22;2586;48.710;9.202;2023-02-20T14:12:44;24.10;1.00
5136;DHT22;2586;48.710;9.202;2023-02-20T14:15:11;23.50;1.00
5136;DHT22;2586;48.710;9.202;2023-02-20T14:17:37;22.90;1.00
5136;DHT22;2586;48.710;9.202;2023-02-20T14:20:19;22.40;1.00
5136;DHT22;2586;48.710;9.202;2023-02-20T14:22:47;22.50;1.00
5136;DHT22;2586;48.710;9.202;2023-02-20T14:25:22;22.50;1.00
5136;DHT22;2586;48.710;9.202;2023-02-20T14:27:48;22.40;1.00
5136;DHT22;2586;48.710;9.202;2023-02-20T14:30:18;22.30;1.00
5136;DHT22;2586;48.710;9.202;2023-02-20T14:32:46;22.70;1.00
5136;DHT22;2586;48.710;9.202;2023-02-20T14:36:19;23.30;1.00
5136;DHT22;2586;48.710;9.202;2023-02-20T14:40:57;24.00;1.00
5136;DHT22;2586;48.710;9.202;2023-02-20T14:43:25;23.00;1.00
5136;DHT22;2586;48.710;9.202;2023-02-20T14:46:01;23.20;1.00
5136;DHT22;2586;48.710;9.202;2023-02-20T14:48:33;23.50;1.00
5136;DHT22;2586;48.710;9.202;2023-02-20T14:51:22;23.30;1.00
5136;DHT22;2586;48.710;9.202;2023-02-20T14:54:32;23.80;1.00
5136;DHT22;2586;48.710;9.202;2023-02-20T14:56:54;23.60;1.00
5136;DHT22;2586;48.710;9.202;2023-02-20T14:59:41;23.40;1.00
5136;DHT22;2586;48.710;9.202;2023-02-20T15:02:26;23.30;1.00
5136;DHT22;2586;48.710;9.202;2023-02-20T15:05:01;23.20;1.00
5136;DHT22;2586;48.710;9.202;2023-02-20T15:07:31;23.20;1.00
5136;DHT22;2586;48.710;9.202;2023-02-20T15:09:59;22.20;1.00
5136;DHT22;2586;48.710;9.202;2023-02-20T15:12:37;22.50;1.00
5136;DHT22;2586;48.710;9.202;2023-02-20T15:15:10;21.90;1.00
5136;DHT22;2586;48.710;9.202;2023-02-20T15:17:40;21.90;1.00
5136;DHT22;2586;48.710;9.202;2023-02-20T15:23:31;21.90;1.00
5136;DHT22;2586;48.710;9.202;2023-02-20T15:25:56;22.00;1.00
5136;DHT22;2586;48.710;9.202;2023-02-20T15:33:46;22.40;1.00
5136;DHT22;2586;48.710;9.202;2023-02-20T15:36:14;22.30;1.00
5136;DHT22;2586;48.710;9.202;2023-02-20T15:38:41;21.50;1.00
5136;DHT22;2586;48.710;9.202;2023-02-20T15:41:08;21.40;1.00
5136;DHT22;2586;48.710;9.202;2023-02-20T15:43:35;21.00;1.00
5136;DHT22;2586;48.710;9.202;2023-02-20T15:46:00;20.90;1.00
5136;DHT22;2586;48.710;9.202;2023-02-20T15:48:26;21.60;1.00
5136;DHT22;2586;48.710;9.202;2023-02-20T15:50:52;21.90;1.00
5136;DHT22;2586;48.710;9.202;2023-02-20T15:53:26;21.10;1.00
5136;DHT22;2586;48.710;9.202;2023-02-20T15:55:53;20.10;1.00
5136;DHT22;2586;48.710;9.202;2023-02-20T15:58:35;19.50;1.00
5136;DHT22;2586;48.710;9.202;2023-02-20T16:01:04;19.70;1.00
5136;DHT22;2586;48.710;9.202;2023-02-20T16:03:31;19.40;1.00
5136;DHT22;2586;48.710;9.202;2023-02-20T16:05:57;19.70;1.00
5136;DHT22;2586;48.710;9.202;2023-02-20T16:08:24;20.10;1.00
5136;DHT22;2586;48.710;9.202;2023-02-20T16:10:50;20.30;1.00
5136;DHT22;2586;48.710;9.202;2023-02-20T16:15:54;20.80;1.00
5136;DHT22;2586;48.710;9.202;2023-02-20T16:18:20;20.70;1.00
5136;DHT22;2586;48.710;9.202;2023-02-20T16:20:46;20.50;1.00
5136;DHT22;2586;48.710;9.202;2023-02-20T16:23:12;20.00;1.00
5136;DHT22;2586;48.710;9.202;2023-02-20T16:25:37;19.40;1.00
5136;DHT22;2586;48.710;9.202;2023-02-20T16:28:03;18.90;1.00
5136;DHT22;2586;48.710;9.202;2023-02-20T16:30:33;18.20;1.00
5136;DHT22;2586;48.710;9.202;2023-02-20T16:33:15;17.40;1.00
5136;DHT22;2586;48.710;9.202;2023-02-20T16:35:41;16.60;1.00
5136;DHT22;2586;48.710;9.202;2023-02-20T16:38:07;16.10;1.00
5136;DHT22;2586;48.710;9.202;2023-02-20T16:40:33;15.60;1.00
5136;DHT22;2586;48.710;9.202;2023-02-20T16:42:59;15.30;1.00
5136;DHT22;2586;48.710;9.202;2023-02-20T16:45:24;14.90;1.00
5136;DHT22;2586;48.710;9.202;2023-02-20T16:47:52;14.60;1.00
5136;DHT22;2586;48.710;9.202;2023-02-20T16:50:26;14.40;1.00
5136;DHT22;2586;48.710;9.202;2023-02-20T16:52:59;14.20;1.00
5136;DHT22;2586;48.710;9.202;2023-02-20T16:55:34;13.90;1.00
5136;DHT22;2586;48.710;9.202;2023-02-20T16:58:00;13.80;1.00
5136;DHT22;2586;48.710;9.202;2023-02-20T17:00:31;13.60;1.00
5136;DHT22;2586;48.710;9.202;2023-02-20T17:02:58;13.40;1.00
5136;DHT22;2586;48.710;9.202;2023-02-20T17:05:28;13.20;1.00
5136;DHT22;2586;48.710;9.202;2023-02-20T17:07:55;12.90;1.00
5136;DHT22;2586;48.710;9.202;2023-02-20T17:10:21;12.80;1.00
5136;DHT22;2586;48.710;9.202;2023-02-20T17:12:46;12.60;1.00
5136;DHT22;2586;48.710;9.202;2023-02-20T17:15:15;12.50;1.00
5136;DHT22;2586;48.710;9.202;2023-02-20T17:17:41;12.40;1.00
5136;DHT22;2586;48.710;9.202;2023-02-20T17:20:11;12.30;1.00
5136;DHT22;2586;48.710;9.202;2023-02-20T17:22:38;12.20;1.00
5136;DHT22;2586;48.710;9.202;2023-02-20T17:25:04;12.10;1.00
5136;DHT22;2586;48.710;9.202;2023-02-20T17:27:30;12.00;1.00
5136;DHT22;2586;48.710;9.202;2023-02-20T17:29:55;12.00;1.00
5136;DHT22;2586;48.710;9.202;2023-02-20T17:32:22;11.90;1.00
5136;DHT22;2586;48.710;9.202;2023-02-20T17:34:48;11.80;1.00
5136;DHT22;2586;48.710;9.202;2023-02-20T17:37:14;11.70;1.00
5136;DHT22;2586;48.710;9.202;2023-02-20T17:39:40;11.60;1.00
5136;DHT22;2586;48.710;9.202;2023-02-20T17:42:06;11.50;1.00
5136;DHT22;2586;48.710;9.202;2023-02-20T17:44:32;11.30;1.00
5136;DHT22;2586;48.710;9.202;2023-02-20T17:46:59;11.20;1.00
5136;DHT22;2586;48.710;9.202;2023-02-20T17:49:25;11.10;1.00
5136;DHT22;2586;48.710;9.202;2023-02-20T17:51:53;11.00;1.00
5136;DHT22;2586;48.710;9.202;2023-02-20T17:54:29;10.90;1.00
5136;DHT22;2586;48.710;9.202;2023-02-20T17:56:59;10.70;1.00
5136;DHT22;2586;48.710;9.202;2023-02-20T17:59:25;10.60;1.00
5136;DHT22;2586;48.710;9.202;2023-02-20T18:01:52;10.40;1.00
5136;DHT22;2586;48.710;9.202;2023-02-20T18:04:17;10.40;1.00
5136;DHT22;2586;48.710;9.202;2023-02-20T18:06:44;10.30;1.00
5136;DHT22;2586;48.710;9.202;2023-02-20T18:09:14;10.20;1.00
5136;DHT22;2586;48.710;9.202;2023-02-20T18:11:41;10.10;1.00
5136;DHT22;2586;48.710;9.202;2023-02-20T18:14:08;10.00;1.00
5136;DHT22;2586;48.710;9.202;2023-02-20T18:16:34;10.00;1.00
5136;DHT22;2586;48.710;9.202;2023-02-20T18:18:59;9.80;1.00
5136;DHT22;2586;48.710;9.202;2023-02-20T18:21:28;9.70;1.00
5136;DHT22;2586;48.710;9.202;2023-02-20T18:23:54;9.60;1.00
5136;DHT22;2586;48.710;9.202;2023-02-20T18:26:20;9.50;1.00
5136;DHT22;2586;48.710;9.202;2023-02-20T18:28:46;9.40;1.00
5136;DHT22;2586;48.710;9.202;2023-02-20T18:31:12;9.40;1.00
5136;DHT22;2586;48.710;9.202;2023-02-20T18:33:38;9.40;1.00
5136;DHT22;2586;48.710;9.202;2023-02-20T18:36:04;9.30;1.00
5136;DHT22;2586;48.710;9.202;2023-02-20T18:38:30;9.30;1.00
5136;DHT22;2586;48.710;9.202;2023-02-20T18:40:55;9.20;1.00
5136;DHT22;2586;48.710;9.202;2023-02-20T18:43:22;9.10;1.00
5136;DHT22;2586;48.710;9.202;2023-02-20T18:45:48;9.10;1.00
5136;DHT22;2586;48.710;9.202;2023-02-20T18:48:14;9.00;1.00
5136;DHT22;2586;48.710;9.202;2023-02-20T18:50:39;9.00;1.00